createdAt,value
2022-12-27T08:28:58.159Z,5.00
2022-12-27T08:31:26.557Z,5.10
2022-12-27T08:33:58.421Z,5.20
2022-12-27T08:39:15.728Z,5.30
2022-12-27T08:41:44.075Z,5.40
2022-12-27T08:44:14.604Z,5.40
2022-12-27T08:46:43.361Z,5.50
2022-12-27T08:49:11.710Z,5.50
2022-12-27T08:51:41.426Z,5.60
2022-12-27T08:54:10.200Z,5.70
2022-12-27T08:56:38.602Z,5.80
2022-12-27T08:59:06.941Z,5.80
2022-12-27T09:01:36.941Z,5.80
2022-12-27T09:04:05.696Z,5.90
2022-12-27T09:06:34.098Z,5.80
2022-12-27T09:09:02.442Z,5.80
2022-12-27T09:11:33.448Z,5.80
2022-12-27T09:14:03.480Z,5.80
2022-12-27T09:16:34.265Z,5.90
2022-12-27T09:19:05.495Z,5.90
2022-12-27T09:21:35.649Z,5.90
2022-12-27T09:24:04.646Z,5.90
2022-12-27T09:26:33.383Z,5.90
2022-12-27T09:29:02.220Z,5.90
2022-12-27T09:31:31.368Z,5.90
2022-12-27T09:34:00.233Z,5.90
2022-12-27T09:36:31.333Z,5.90
2022-12-27T09:39:00.525Z,5.90
2022-12-27T09:44:48.437Z,5.90
2022-12-27T09:47:23.392Z,6.00
2022-12-27T09:49:57.125Z,6.00
2022-12-27T09:52:34.407Z,6.10
2022-12-27T09:55:11.041Z,6.20
2022-12-27T09:57:42.729Z,6.30
2022-12-27T10:00:17.813Z,6.40
2022-12-27T10:02:46.964Z,6.50
2022-12-27T10:05:23.178Z,6.50
2022-12-27T10:08:07.982Z,6.60
2022-12-27T10:10:43.758Z,6.60
2022-12-27T10:13:39.588Z,6.70
2022-12-27T10:16:21.237Z,6.60
2022-12-27T10:19:03.355Z,6.60
2022-12-27T10:21:36.069Z,6.70
2022-12-27T10:24:19.731Z,6.70
2022-12-27T10:26:48.179Z,6.70
2022-12-27T10:29:22.326Z,6.70
2022-12-27T10:31:51.100Z,6.70
2022-12-27T10:34:24.691Z,6.80
2022-12-27T10:36:54.545Z,6.80
2022-12-27T10:39:32.260Z,6.90
2022-12-27T10:42:09.301Z,6.90
2022-12-27T10:44:37.859Z,7.00
2022-12-27T10:47:06.975Z,7.00
2022-12-27T10:49:36.492Z,7.00
2022-12-27T10:52:10.280Z,7.00
2022-12-27T10:54:52.822Z,7.00
2022-12-27T10:57:27.856Z,6.90
2022-12-27T11:00:20.987Z,6.90
2022-12-27T11:02:54.219Z,6.90
2022-12-27T11:05:36.077Z,6.90
2022-12-27T11:08:21.229Z,6.80
2022-12-27T11:10:51.154Z,6.90
2022-12-27T11:13:20.282Z,7.00
2022-12-27T11:15:59.065Z,7.00
2022-12-27T11:18:27.851Z,7.00
2022-12-27T11:20:58.513Z,7.10
2022-12-27T11:23:32.156Z,7.10
2022-12-27T11:26:04.513Z,7.10
2022-12-27T11:28:36.986Z,7.20
2022-12-27T11:31:08.302Z,7.20
2022-12-27T11:33:41.338Z,7.20
2022-12-27T11:36:12.733Z,7.20
2022-12-27T11:38:48.764Z,7.20
2022-12-27T11:41:27.701Z,7.30
2022-12-27T11:44:00.549Z,7.30
2022-12-27T11:46:32.408Z,7.30
2022-12-27T11:49:03.347Z,7.40
2022-12-27T11:51:54.535Z,7.40
2022-12-27T11:54:53.337Z,7.50
2022-12-27T11:57:34.848Z,7.50
2022-12-27T12:00:13.902Z,7.50
2022-12-27T12:02:58.240Z,7.60
2022-12-27T12:05:44.144Z,7.70
2022-12-27T12:08:25.241Z,7.80
2022-12-27T12:11:04.939Z,8.00
2022-12-27T12:14:04.065Z,8.20
2022-12-27T12:17:02.198Z,8.40
2022-12-27T12:19:49.802Z,8.60
2022-12-27T12:22:36.445Z,8.80
2022-12-27T12:25:40.570Z,9.20
2022-12-27T12:31:58.298Z,9.90
2022-12-27T12:34:43.831Z,10.20
2022-12-27T12:37:25.538Z,10.60
2022-12-27T12:40:09.268Z,10.80
2022-12-27T12:42:47.847Z,10.90
2022-12-27T12:45:34.208Z,11.20
2022-12-27T12:48:30.600Z,12.00
2022-12-27T12:51:18.855Z,12.40
2022-12-27T12:54:09.334Z,12.90
2022-12-27T12:57:08.063Z,13.20
2022-12-27T13:00:04.738Z,13.00
2022-12-27T13:03:12.808Z,12.60
2022-12-27T13:05:49.051Z,12.30
2022-12-27T13:08:27.113Z,11.80
2022-12-27T13:11:31.361Z,11.40
2022-12-27T13:14:20.802Z,11.30
2022-12-27T13:16:56.640Z,11.40
2022-12-27T13:19:51.322Z,11.50
2022-12-27T13:22:31.384Z,11.50
2022-12-27T13:25:12.287Z,11.80
2022-12-27T13:27:46.934Z,12.00
2022-12-27T13:30:21.433Z,12.00
2022-12-27T13:33:17.847Z,12.10
2022-12-27T13:36:07.067Z,12.20
2022-12-27T13:38:52.093Z,12.40
2022-12-27T13:41:31.162Z,12.30
2022-12-27T13:44:22.949Z,12.00
2022-12-27T13:47:14.938Z,11.80
2022-12-27T13:50:06.163Z,11.60
2022-12-27T13:52:55.932Z,11.60
2022-12-27T13:55:50.990Z,11.80
2022-12-27T13:58:35.365Z,12.00
2022-12-27T14:01:16.965Z,12.40
2022-12-27T14:03:56.698Z,12.60
2022-12-27T14:07:04.715Z,12.50
2022-12-27T14:10:07.149Z,12.50
2022-12-27T14:12:59.535Z,12.50
2022-12-27T14:15:40.217Z,12.60
2022-12-27T14:18:38.017Z,12.80
2022-12-27T14:21:17.354Z,13.10
2022-12-27T14:24:11.731Z,13.40
2022-12-27T14:27:12.280Z,13.50
2022-12-27T14:30:23.108Z,13.70
2022-12-27T14:33:30.731Z,13.50
2022-12-27T14:36:40.889Z,12.70
2022-12-27T14:39:48.244Z,12.40
2022-12-27T14:42:48.488Z,12.60
2022-12-27T14:45:44.654Z,12.70
2022-12-27T14:48:50.453Z,12.50
2022-12-27T14:52:12.590Z,12.00
2022-12-27T14:55:03.692Z,11.40
2022-12-27T14:57:41.880Z,11.10
2022-12-27T15:00:18.493Z,10.80
2022-12-27T15:03:06.581Z,10.60
2022-12-27T15:06:02.392Z,10.50
2022-12-27T15:08:43.971Z,10.30
2022-12-27T15:11:40.614Z,10.20
2022-12-27T15:14:23.325Z,10.20
2022-12-27T15:16:59.004Z,10.20
2022-12-27T15:19:45.063Z,10.10
2022-12-27T15:22:24.715Z,10.10
2022-12-27T15:25:05.552Z,10.10
2022-12-27T15:27:39.886Z,10.00
2022-12-27T15:30:23.296Z,9.90
2022-12-27T15:33:00.381Z,9.90
